Time;durP1;ratioP1;P1;durP2;ratioP2;P2;SDS_P1;SDS_P2;PMS_P1;PMS_P2;Temp;Humidity;BMP_temperature;BMP_pressure;BME280_temperature;BME280_humidity;BME280_pressure;Samples;Min_cycle;Max_cycle;Signal;HPM_P1;HPM_P2
2023/09/29 00:00:53;;;;;;;12.57;6.00;;;;;;;;;;5002350;28;20041;-56
2023/09/29 00:03:19;;;;;;;11.50;5.70;;;;;;;;;;4990649;28;20429;-56
2023/09/29 00:05:49;;;;;;;13.88;6.07;;;17.40;99.90;;;;;;4997571;28;20050;-55
2023/09/29 00:08:17;;;;;;;12.27;6.03;;;;;;;;;;4998677;28;20046;-55
2023/09/29 00:10:45;;;;;;;9.30;5.35;;;17.30;99.90;;;;;;4994319;28;20033;-55
2023/09/29 00:13:13;;;;;;;10.05;5.53;;;;;;;;;;4998009;28;20037;-55
2023/09/29 00:15:41;;;;;;;6.93;4.80;;;;;;;;;;5000872;28;20044;-57
2023/09/29 00:18:08;;;;;;;7.82;4.82;;;;;;;;;;4994918;28;20545;-55
2023/09/29 00:20:35;;;;;;;10.15;5.25;;;17.30;99.90;;;;;;4992525;28;20608;-54
2023/09/29 00:23:01;;;;;;;12.07;5.47;;;17.50;99.90;;;;;;4995363;28;20103;-55
2023/09/29 00:25:28;;;;;;;7.43;5.22;;;;;;;;;;4994734;28;20421;-54
2023/09/29 00:27:55;;;;;;;10.43;5.30;;;;;;;;;;4994917;28;20044;-56
2023/09/29 00:30:22;;;;;;;11.02;5.05;;;;;;;;;;4992846;28;20049;-56
2023/09/29 00:32:53;;;;;;;8.77;5.00;;;;;;;;;;4990937;28;20046;-55
2023/09/29 00:35:24;;;;;;;10.18;5.28;;;;;;;;;;4991315;28;20111;-56
2023/09/29 00:38:09;;;;;;;11.00;5.68;;;;;;;;;;4994179;28;20038;-55
2023/09/29 00:40:36;;;;;;;9.88;5.43;;;;;;;;;;4992786;28;20537;-56
2023/09/29 00:43:03;;;;;;;10.95;5.82;;;17.50;99.90;;;;;;4991786;28;20038;-56
2023/09/29 00:45:29;;;;;;;9.25;5.55;;;17.60;99.90;;;;;;4997064;28;20034;-54
2023/09/29 00:48:06;;;;;;;11.13;5.82;;;17.70;99.90;;;;;;4995781;28;20397;-56
2023/09/29 00:50:34;;;;;;;8.27;5.40;;;17.60;99.90;;;;;;5011781;28;20183;-55
2023/09/29 00:53:07;;;;;;;10.10;5.63;;;17.70;99.90;;;;;;4987335;28;20042;-60
2023/09/29 00:55:35;;;;;;;9.32;5.47;;;17.70;99.90;;;;;;5011689;28;20045;-55
2023/09/29 00:58:03;;;;;;;12.18;5.57;;;17.80;99.90;;;;;;5005121;28;20140;-54
2023/09/29 01:02:55;;;;;;;11.32;5.53;;;17.70;99.90;;;;;;4993507;28;20057;-55
2023/09/29 01:05:21;;;;;;;8.63;5.43;;;17.70;99.90;;;;;;4993094;28;20719;-54
2023/09/29 01:07:47;;;;;;;9.55;5.00;;;17.60;99.90;;;;;;4992615;28;20038;-54
2023/09/29 01:10:17;;;;;;;13.10;5.28;;;17.60;99.90;;;;;;4991183;28;20038;-56
2023/09/29 01:12:44;;;;;;;11.07;5.07;;;;;;;;;;4992122;28;20128;-54
2023/09/29 01:15:13;;;;;;;8.35;4.93;;;;;;;;;;4989536;28;20073;-56
2023/09/29 01:17:41;;;;;;;9.23;4.50;;;17.70;99.90;;;;;;4993920;28;20053;-56
2023/09/29 01:20:16;;;;;;;9.90;5.18;;;;;;;;;;4991700;28;20069;-55
2023/09/29 01:22:46;;;;;;;8.63;4.75;;;17.60;99.90;;;;;;4995045;28;20038;-55
2023/09/29 01:25:13;;;;;;;10.55;5.05;;;;;;;;;;4995836;28;20041;-55
2023/09/29 01:27:39;;;;;;;8.02;4.93;;;17.70;99.90;;;;;;4990373;28;20663;-54
2023/09/29 01:30:06;;;;;;;9.48;4.72;;;;;;;;;;4994221;28;20042;-56
2023/09/29 01:32:33;;;;;;;8.75;4.78;;;;;;;;;;4994495;28;20049;-56
2023/09/29 01:34:58;;;;;;;9.05;4.90;;;17.50;99.90;;;;;;4992340;28;20189;-55
2023/09/29 01:37:25;;;;;;;8.50;4.82;;;17.60;99.90;;;;;;4988787;28;20612;-54
2023/09/29 01:39:51;;;;;;;7.82;4.55;;;17.80;99.90;;;;;;4994322;28;20037;-55
2023/09/29 01:42:17;;;;;;;9.20;4.28;;;17.60;99.90;;;;;;4993998;28;20246;-56
2023/09/29 01:44:43;;;;;;;7.25;4.38;;;;;;;;;;4991589;28;20033;-54
2023/09/29 01:47:09;;;;;;;8.82;4.63;;;17.70;99.90;;;;;;4994157;28;20045;-56
2023/09/29 01:49:34;;;;;;;15.48;4.85;;;17.70;99.90;;;;;;4995638;28;20715;-54
2023/09/29 01:52:01;;;;;;;7.03;4.20;;;;;;;;;;4999995;28;20034;-54
2023/09/29 01:54:28;;;;;;;10.25;5.20;;;;;;;;;;4998140;28;21214;-55
2023/09/29 01:56:55;;;;;;;8.80;5.03;;;;;;;;;;4994399;28;20800;-55
2023/09/29 01:59:23;;;;;;;11.45;4.70;;;;;;;;;;4993325;28;20124;-55
2023/09/29 02:01:48;;;;;;;9.90;5.03;;;17.70;99.90;;;;;;4994657;28;20101;-54
2023/09/29 02:04:15;;;;;;;9.80;4.90;;;;;;;;;;4993915;28;20452;-56
2023/09/29 02:06:42;;;;;;;12.68;4.60;;;;;;;;;;4995914;28;20037;-56
2023/09/29 02:09:10;;;;;;;8.85;4.82;;;;;;;;;;4997287;28;20029;-55
2023/09/29 02:11:39;;;;;;;10.48;5.22;;;17.70;99.90;;;;;;5000159;28;20037;-54
2023/09/29 02:14:05;;;;;;;12.57;5.40;;;17.80;99.90;;;;;;5012180;28;20057;-52
2023/09/29 02:16:32;;;;;;;9.48;4.90;;;;;;;;;;4994593;28;20077;-55
2023/09/29 02:18:58;;;;;;;11.20;4.75;;;;;;;;;;4994741;28;21957;-54
2023/09/29 02:21:28;;;;;;;8.80;4.70;;;17.60;99.90;;;;;;4994690;28;20131;-56
2023/09/29 02:23:57;;;;;;;7.65;4.57;;;;;;;;;;4994170;28;20033;-56
2023/09/29 02:26:25;;;;;;;7.07;4.65;;;;;;;;;;4997937;28;20693;-56
2023/09/29 02:28:54;;;;;;;7.88;4.72;;;;;;;;;;4995696;28;20365;-54
2023/09/29 02:31:21;;;;;;;9.07;4.40;;;;;;;;;;4999225;28;20739;-55
2023/09/29 02:33:47;;;;;;;9.63;4.75;;;;;;;;;;5014949;28;20045;-56
2023/09/29 02:36:13;;;;;;;7.78;4.43;;;;;;;;;;5005836;28;20042;-55
2023/09/29 02:38:39;;;;;;;9.50;4.63;;;;;;;;;;5007668;28;20076;-54
2023/09/29 02:41:07;;;;;;;8.40;4.50;;;;;;;;;;4996978;28;20088;-55
2023/09/29 02:43:36;;;;;;;8.70;4.85;;;;;;;;;;4993321;28;20045;-56
2023/09/29 02:46:04;;;;;;;7.95;5.03;;;;;;;;;;4993770;28;20831;-54
2023/09/29 02:48:33;;;;;;;12.20;5.15;;;;;;;;;;5015972;28;20249;-54
2023/09/29 02:50:59;;;;;;;8.65;4.70;;;;;;;;;;5012385;28;20049;-53
2023/09/29 02:53:25;;;;;;;10.10;4.88;;;;;;;;;;5013157;28;20562;-53
2023/09/29 02:55:51;;;;;;;7.68;5.13;;;;;;;;;;5013551;28;20393;-55
2023/09/29 02:58:20;;;;;;;8.52;4.55;;;;;;;;;;5013860;28;20037;-54
2023/09/29 03:00:49;;;;;;;10.98;5.20;;;17.70;99.90;;;;;;5014103;28;20148;-54
2023/09/29 03:03:19;;;;;;;9.68;5.15;;;;;;;;;;5016307;28;20037;-55
2023/09/29 03:05:48;;;;;;;12.00;5.32;;;;;;;;;;5014107;28;20033;-55
2023/09/29 03:08:17;;;;;;;10.60;4.75;;;17.80;99.90;;;;;;4993624;28;20604;-55
2023/09/29 03:10:46;;;;;;;11.90;5.35;;;;;;;;;;4997927;28;20048;-55
2023/09/29 03:13:14;;;;;;;9.98;5.30;;;;;;;;;;4993867;28;20148;-54
2023/09/29 03:15:43;;;;;;;9.52;5.18;;;17.90;99.90;;;;;;4992219;28;20083;-56
2023/09/29 03:18:10;;;;;;;7.93;5.28;;;;;;;;;;4995364;28;20037;-55
2023/09/29 03:20:37;;;;;;;9.80;5.30;;;;;;;;;;4995561;28;20799;-54
2023/09/29 03:23:05;;;;;;;9.85;5.57;;;17.80;99.90;;;;;;4996169;28;20220;-56
2023/09/29 03:25:32;;;;;;;11.80;6.38;;;;;;;;;;4995119;28;20132;-54
2023/09/29 03:28:00;;;;;;;10.80;5.70;;;17.90;99.90;;;;;;4995028;28;20811;-55
2023/09/29 03:30:26;;;;;;;10.27;6.18;;;;;;;;;;4990988;28;20398;-55
2023/09/29 03:32:53;;;;;;;11.68;5.80;;;;;;;;;;4994559;28;20100;-55
2023/09/29 03:35:21;;;;;;;9.40;6.10;;;17.90;99.90;;;;;;4992208;28;20145;-55
2023/09/29 03:37:49;;;;;;;11.63;6.07;;;;;;;;;;4994355;28;20497;-54
2023/09/29 03:40:18;;;;;;;13.20;6.82;;;;;;;;;;4992173;28;20905;-54
2023/09/29 03:42:47;;;;;;;10.77;7.13;;;;;;;;;;4990621;28;20373;-54
2023/09/29 03:45:14;;;;;;;9.35;6.38;;;;;;;;;;4990173;28;20033;-55
2023/09/29 03:47:41;;;;;;;12.50;7.10;;;;;;;;;;4997784;28;20042;-56
2023/09/29 03:50:13;;;;;;;12.82;7.22;;;;;;;;;;4991986;28;20658;-55
2023/09/29 03:52:39;;;;;;;15.60;7.25;;;;;;;;;;5003311;28;20057;-53
2023/09/29 03:55:09;;;;;;;14.95;7.53;;;;;;;;;;4997167;28;20034;-55
2023/09/29 03:57:37;;;;;;;12.55;6.75;;;;;;;;;;5001856;28;20382;-55
2023/09/29 04:00:04;;;;;;;13.73;7.22;;;;;;;;;;4994590;28;20506;-50
2023/09/29 04:02:31;;;;;;;11.10;7.13;;;;;;;;;;4992228;28;20073;-51
2023/09/29 04:04:59;;;;;;;14.70;7.78;;;;;;;;;;4992813;28;20030;-54
2023/09/29 04:07:25;;;;;;;13.32;7.90;;;;;;;;;;4988192;28;20120;-53
2023/09/29 04:09:51;;;;;;;12.68;7.93;;;;;;;;;;4987666;28;20049;-53
2023/09/29 04:12:17;;;;;;;14.95;8.07;;;;;;;;;;4991579;28;20030;-55
2023/09/29 04:14:43;;;;;;;17.73;8.43;;;;;;;;;;4994191;28;20049;-55
2023/09/29 04:17:09;;;;;;;16.52;8.55;;;;;;;;;;4988900;28;20755;-55
2023/09/29 04:19:35;;;;;;;13.98;9.02;;;;;;;;;;5002342;28;20072;-54
2023/09/29 04:22:01;;;;;;;17.50;9.50;;;;;;;;;;5020867;28;20038;-55
2023/09/29 04:24:27;;;;;;;16.00;8.98;;;;;;;;;;5024516;28;20112;-55
2023/09/29 04:26:53;;;;;;;13.13;8.52;;;;;;;;;;5025250;28;20045;-56
2023/09/29 04:29:19;;;;;;;16.02;8.73;;;;;;;;;;5023076;28;20405;-55
2023/09/29 04:31:45;;;;;;;16.40;8.57;;;;;;;;;;5022710;28;20037;-56
2023/09/29 04:34:11;;;;;;;14.38;9.13;;;;;;;;;;5021179;28;20899;-56
2023/09/29 04:36:38;;;;;;;14.95;8.35;;;;;;;;;;5023630;28;20048;-55
2023/09/29 04:39:03;;;;;;;17.42;8.77;;;;;;;;;;5006470;28;20036;-56
2023/09/29 04:41:29;;;;;;;18.75;8.45;;;;;;;;;;5001207;28;20041;-56
2023/09/29 04:43:55;;;;;;;12.65;8.10;;;;;;;;;;5008371;28;20030;-56
2023/09/29 04:46:23;;;;;;;15.27;9.00;;;;;;;;;;5022806;28;20048;-56
2023/09/29 04:48:52;;;;;;;14.27;8.45;;;;;;;;;;5023623;28;20032;-56
2023/09/29 04:51:18;;;;;;;13.13;8.52;;;;;;;;;;5021020;28;20041;-56
2023/09/29 04:53:45;;;;;;;12.38;8.32;;;;;;;;;;5020842;28;20041;-55
2023/09/29 04:56:11;;;;;;;13.55;8.68;;;;;;;;;;5018463;28;20093;-57
2023/09/29 04:58:37;;;;;;;16.48;8.88;;;;;;;;;;5018936;28;20551;-55
2023/09/29 05:01:03;;;;;;;13.57;8.55;;;;;;;;;;5009029;28;20038;-56
2023/09/29 05:03:29;;;;;;;16.98;9.30;;;;;;;;;;5011198;28;20048;-56
2023/09/29 05:05:55;;;;;;;16.65;9.15;;;;;;;;;;5006549;28;20045;-56
2023/09/29 05:08:21;;;;;;;14.80;8.93;;;;;;;;;;4993887;28;20156;-56
2023/09/29 05:10:47;;;;;;;16.90;9.50;;;;;;;;;;5017692;28;20041;-56
2023/09/29 05:13:14;;;;;;;16.10;9.88;;;;;;;;;;5015486;28;20030;-56
2023/09/29 05:15:40;;;;;;;15.65;9.40;;;;;;;;;;5012576;28;20085;-56
2023/09/29 05:18:06;;;;;;;15.55;9.45;;;;;;;;;;5004695;28;20509;-55
2023/09/29 05:20:32;;;;;;;18.40;9.52;;;;;;;;;;4998171;28;20464;-57
2023/09/29 05:22:58;;;;;;;15.38;9.68;;;;;;;;;;5010466;28;20037;-57
2023/09/29 05:25:24;;;;;;;16.25;9.90;;;;;;;;;;5006297;28;21933;-56
2023/09/29 05:27:50;;;;;;;16.88;10.60;;;;;;;;;;5010416;28;20152;-56
2023/09/29 05:30:18;;;;;;;14.23;9.27;;;;;;;;;;5013346;28;20131;-57
2023/09/29 05:32:44;;;;;;;16.05;9.38;;;;;;;;;;5008816;28;20125;-55
2023/09/29 05:35:10;;;;;;;15.23;9.32;;;;;;;;;;5009249;28;20117;-56
2023/09/29 05:37:36;;;;;;;15.38;8.85;;;;;;;;;;4999980;28;20026;-54
2023/09/29 05:40:03;;;;;;;15.27;9.48;;;;;;;;;;5019905;28;20045;-56
2023/09/29 05:42:30;;;;;;;18.63;8.48;;;;;;;;;;5030242;28;20087;-57
2023/09/29 05:44:56;;;;;;;14.75;8.48;;;;;;;;;;5027539;28;20358;-55
2023/09/29 05:47:22;;;;;;;15.25;8.45;;;;;;;;;;5028259;28;20091;-56
2023/09/29 05:49:48;;;;;;;15.90;9.57;;;;;;;;;;5015111;28;20045;-55
2023/09/29 05:52:15;;;;;;;15.43;8.90;;;;;;;;;;5014666;28;20034;-55
2023/09/29 05:54:41;;;;;;;17.27;8.98;;;;;;;;;;5014486;28;20041;-55
2023/09/29 05:57:07;;;;;;;13.60;9.00;;;;;;;;;;5027170;28;20095;-54
2023/09/29 05:59:33;;;;;;;11.27;8.35;;;;;;;;;;5011542;28;20311;-55
2023/09/29 06:01:59;;;;;;;15.80;9.23;;;;;;;;;;5009850;28;20567;-54
2023/09/29 06:04:25;;;;;;;17.02;8.75;;;;;;;;;;5009089;28;20469;-56
2023/09/29 06:06:51;;;;;;;16.65;9.43;;;;;;;;;;5023750;28;20040;-55
2023/09/29 06:09:17;;;;;;;16.25;8.70;;;;;;;;;;5008875;28;20033;-55
2023/09/29 06:11:43;;;;;;;16.38;8.52;;;;;;;;;;5004786;28;20424;-55
2023/09/29 06:14:09;;;;;;;13.98;8.75;;;;;;;;;;5007132;28;20042;-56
2023/09/29 06:16:36;;;;;;;19.70;8.65;;;;;;;;;;4999850;28;20038;-56
2023/09/29 06:19:02;;;;;;;47.08;35.72;;;;;;;;;;4986782;28;20068;-54
2023/09/29 06:21:28;;;;;;;37.85;25.85;;;;;;;;;;5002914;28;20125;-55
2023/09/29 06:23:54;;;;;;;19.67;10.57;;;;;;;;;;5001167;28;20588;-56
2023/09/29 06:26:20;;;;;;;14.85;9.90;;;;;;;;;;5001923;28;20060;-55
2023/09/29 06:28:46;;;;;;;14.60;8.35;;;;;;;;;;5004504;28;20433;-55
2023/09/29 06:31:13;;;;;;;13.10;8.40;;;18.40;99.90;;;;;;5026170;28;20044;-55
2023/09/29 06:33:42;;;;;;;14.38;8.02;;;18.50;99.90;;;;;;5013718;28;20052;-56
2023/09/29 06:36:07;;;;;;;16.60;9.05;;;18.50;99.90;;;;;;5022943;28;20112;-54
2023/09/29 06:38:33;;;;;;;18.20;8.13;;;18.50;99.90;;;;;;5020083;28;20120;-56
2023/09/29 06:40:59;;;;;;;20.48;8.80;;;18.50;99.90;;;;;;5016367;28;20040;-54
2023/09/29 06:43:25;;;;;;;18.85;8.15;;;;;;;;;;5012221;28;20044;-55
2023/09/29 06:45:50;;;;;;;15.32;8.13;;;18.40;99.90;;;;;;5012634;28;20025;-56
2023/09/29 06:48:17;;;;;;;13.80;7.90;;;;;;;;;;5012126;28;20055;-54
2023/09/29 06:50:43;;;;;;;15.63;8.40;;;;;;;;;;5009245;28;20425;-53
2023/09/29 06:53:10;;;;;;;13.45;7.80;;;;;;;;;;4994504;28;20578;-54
2023/09/29 06:55:36;;;;;;;14.52;7.25;;;;;;;;;;4992661;28;20034;-55
2023/09/29 06:58:04;;;;;;;16.63;7.55;;;18.80;99.90;;;;;;4988946;28;20030;-53
2023/09/29 07:00:30;;;;;;;13.02;7.30;;;18.80;99.90;;;;;;5014924;28;20651;-55
2023/09/29 07:02:55;;;;;;;19.77;8.25;;;19.10;99.90;;;;;;5020417;28;20107;-55
2023/09/29 07:05:23;;;;;;;12.00;7.95;;;18.70;99.90;;;;;;4997019;28;20049;-55
2023/09/29 07:07:49;;;;;;;14.88;7.25;;;18.90;99.90;;;;;;5014992;28;20061;-57
2023/09/29 07:10:15;;;;;;;12.75;7.75;;;;;;;;;;5018834;28;20069;-56
2023/09/29 07:12:41;;;;;;;17.45;7.35;;;;;;;;;;5010502;28;20046;-54
2023/09/29 07:15:08;;;;;;;12.02;7.43;;;;;;;;;;4991103;28;20749;-54
2023/09/29 07:17:34;;;;;;;14.77;7.43;;;;;;;;;;4991324;28;20313;-55
2023/09/29 07:19:59;;;;;;;25.88;7.75;;;19.00;99.90;;;;;;4991566;28;20026;-56
2023/09/29 07:22:28;;;;;;;14.32;6.95;;;;;;;;;;4997844;28;20033;-56
2023/09/29 07:24:57;;;;;;;13.50;7.53;;;;;;;;;;5007376;28;20393;-56
2023/09/29 07:27:23;;;;;;;21.67;7.70;;;;;;;;;;5008916;28;20079;-56
2023/09/29 07:29:49;;;;;;;18.90;7.57;;;19.40;99.90;;;;;;5023560;28;20026;-55
2023/09/29 07:32:15;;;;;;;12.00;7.30;;;19.20;99.90;;;;;;5024585;28;20056;-54
2023/09/29 07:34:41;;;;;;;14.13;6.45;;;19.20;99.90;;;;;;5023806;28;20253;-56
2023/09/29 07:37:07;;;;;;;16.52;7.55;;;;;;;;;;4999473;28;20433;-55
2023/09/29 07:39:33;;;;;;;13.50;7.20;;;;;;;;;;5012738;28;20472;-54
2023/09/29 07:41:58;;;;;;;11.32;6.15;;;19.30;99.90;;;;;;5012590;28;20029;-55
2023/09/29 07:44:24;;;;;;;10.60;6.50;;;19.40;99.90;;;;;;5011406;28;20044;-54
2023/09/29 07:46:53;;;;;;;30.35;9.48;;;;;;;;;;4998748;28;20030;-56
2023/09/29 07:49:23;;;;;;;13.50;6.63;;;;;;;;;;4993586;28;20482;-56
2023/09/29 07:51:51;;;;;;;12.75;6.28;;;;;;;;;;4993505;28;20508;-56
2023/09/29 07:54:19;;;;;;;15.93;7.07;;;;;;;;;;4989195;28;20041;-55
2023/09/29 07:56:49;;;;;;;15.60;7.10;;;;;;;;;;5006828;28;20038;-56
2023/09/29 07:59:15;;;;;;;13.52;5.78;;;;;;;;;;4989620;28;20038;-54
2023/09/29 08:01:42;;;;;;;16.58;6.45;;;;;;;;;;4988438;28;20046;-55
2023/09/29 08:04:08;;;;;;;15.32;6.40;;;;;;;;;;4997279;28;20438;-56
2023/09/29 08:06:35;;;;;;;16.55;6.07;;;;;;;;;;5000662;28;20116;-55
2023/09/29 08:09:01;;;;;;;13.07;5.78;;;19.70;99.90;;;;;;4999929;28;20030;-55
2023/09/29 08:11:26;;;;;;;14.70;5.45;;;19.80;99.90;;;;;;4998186;28;20053;-56
2023/09/29 08:13:53;;;;;;;13.63;5.57;;;19.10;99.90;;;;;;5000902;28;20100;-55
2023/09/29 08:16:20;;;;;;;13.18;5.40;;;19.80;99.90;;;;;;4985908;28;20045;-56
2023/09/29 08:18:46;;;;;;;7.70;4.90;;;19.50;99.90;;;;;;5001973;28;20168;-56
2023/09/29 08:21:11;;;;;;;9.40;4.53;;;20.20;99.90;;;;;;5000487;28;20454;-55
2023/09/29 08:23:39;;;;;;;11.75;4.55;;;19.90;99.90;;;;;;5000914;28;20370;-58
2023/09/29 08:26:04;;;;;;;15.45;5.15;;;20.10;99.90;;;;;;4999601;28;20030;-55
2023/09/29 08:28:32;;;;;;;10.68;5.32;;;20.00;99.90;;;;;;5002179;28;20050;-54
2023/09/29 08:30:58;;;;;;;11.40;4.80;;;20.10;99.90;;;;;;5015825;28;20049;-56
2023/09/29 08:33:27;;;;;;;78.63;50.25;;;20.10;99.90;;;;;;5009460;28;20034;-56
2023/09/29 08:35:55;;;;;;;12.20;4.80;;;20.20;99.90;;;;;;5001807;28;20037;-53
2023/09/29 08:38:22;;;;;;;14.35;4.47;;;20.50;99.90;;;;;;5002221;28;20050;-55
2023/09/29 08:40:55;;;;;;;9.80;4.38;;;20.50;99.90;;;;;;4998742;28;20068;-55
2023/09/29 08:43:21;;;;;;;10.60;4.67;;;20.70;99.90;;;;;;5001442;28;20030;-56
2023/09/29 08:45:49;;;;;;;9.27;4.40;;;19.10;99.90;;;;;;4999935;28;20137;-54
2023/09/29 08:48:16;;;;;;;11.05;4.47;;;;;;;;;;5003988;28;20034;-54
2023/09/29 08:50:43;;;;;;;7.93;4.22;;;;;;;;;;5006530;28;20041;-54
2023/09/29 08:53:10;;;;;;;11.10;4.20;;;;;;;;;;4992437;28;20034;-55
2023/09/29 08:55:38;;;;;;;9.68;4.18;;;;;;;;;;4989812;28;20117;-54
2023/09/29 08:58:05;;;;;;;10.85;4.00;;;;;;;;;;4991584;28;20068;-55
2023/09/29 09:00:33;;;;;;;7.32;3.72;;;;;;;;;;5019162;28;20448;-57
2023/09/29 09:03:01;;;;;;;9.40;4.22;;;;;;;;;;5002691;28;20030;-55
2023/09/29 09:05:28;;;;;;;5.80;3.63;;;;;;;;;;5016615;28;20097;-55
2023/09/29 09:07:54;;;;;;;6.63;3.40;;;;;;;;;;5018814;28;20116;-54
2023/09/29 09:10:30;;;;;;;9.48;3.38;;;;;;;;;;5009122;28;20041;-55
2023/09/29 09:12:56;;;;;;;9.77;3.72;;;;;;;;;;5010224;28;20720;-55
2023/09/29 09:15:26;;;;;;;7.60;3.20;;;;;;;;;;4995292;28;20042;-55
2023/09/29 09:17:52;;;;;;;9.25;3.42;;;;;;;;;;5004389;28;20139;-54
2023/09/29 09:20:18;;;;;;;9.00;3.55;;;;;;;;;;4990382;28;20092;-56
2023/09/29 09:22:45;;;;;;;12.65;3.80;;;;;;;;;;4990586;28;20556;-56
2023/09/29 09:25:12;;;;;;;9.00;3.40;;;;;;;;;;4991019;28;20144;-55
2023/09/29 09:27:39;;;;;;;6.50;3.22;;;;;;;;;;4994417;28;20336;-54
2023/09/29 09:30:05;;;;;;;9.52;3.22;;;;;;;;;;4987347;28;20048;-54
2023/09/29 09:32:31;;;;;;;8.88;3.30;;;;;;;;;;4991910;28;20045;-54
2023/09/29 09:34:58;;;;;;;13.15;3.97;;;;;;;;;;4992145;28;20493;-54
2023/09/29 09:37:28;;;;;;;6.25;3.30;;;;;;;;;;4992896;28;20121;-55
2023/09/29 09:40:01;;;;;;;8.07;3.38;;;;;;;;;;4987884;28;20053;-55
2023/09/29 09:42:27;;;;;;;6.63;3.20;;;;;;;;;;4995922;28;20579;-56
2023/09/29 09:44:59;;;;;;;10.52;3.38;;;;;;;;;;4990281;28;20057;-54
2023/09/29 09:47:26;;;;;;;11.27;3.28;;;;;;;;;;4992112;28;20061;-54
2023/09/29 09:49:55;;;;;;;12.10;4.38;;;;;;;;;;5001719;28;20030;-54
2023/09/29 09:52:26;;;;;;;10.02;4.03;;;;;;;;;;5005755;28;20385;-55
2023/09/29 09:54:57;;;;;;;8.07;3.70;;;;;;;;;;5001390;28;20312;-54
2023/09/29 09:57:33;;;;;;;12.80;3.72;;;;;;;;;;5012367;28;20033;-54
2023/09/29 10:00:06;;;;;;;8.85;3.70;;;;;;;;;;5001157;28;20045;-54
2023/09/29 10:02:33;;;;;;;;;;;;;;;;;;4999891;28;20062;-55
2023/09/29 10:05:00;;;;;;;10.40;4.13;;;;;;;;;;5001642;28;19921;-55
2023/09/29 10:07:26;;;;;;;12.35;4.05;;;;;;;;;;4997639;28;20037;-54
2023/09/29 10:09:52;;;;;;;10.00;3.88;;;;;;;;;;5002350;28;20160;-56
2023/09/29 10:12:28;;;;;;;14.52;4.50;;;;;;;;;;5005797;28;20974;-56
2023/09/29 10:15:00;;;;;;;10.23;4.05;;;;;;;;;;5003007;28;20493;-56
2023/09/29 10:17:39;;;;;;;23.70;4.60;;;;;;;;;;5003040;28;20033;-55
2023/09/29 10:20:05;;;;;;;10.60;4.20;;;;;;;;;;5003724;28;20108;-56
2023/09/29 10:22:31;;;;;;;14.50;3.95;;;;;;;;;;5005228;28;20038;-56
2023/09/29 10:24:59;;;;;;;12.45;4.10;;;;;;;;;;5003825;28;20529;-55
2023/09/29 10:27:27;;;;;;;9.82;3.40;;;;;;;;;;5007713;28;20038;-55
2023/09/29 10:30:02;;;;;;;11.68;3.92;;;;;;;;;;4995918;28;20164;-56
2023/09/29 10:32:33;;;;;;;12.30;4.15;;;;;;;;;;5014099;28;20854;-52
2023/09/29 10:35:05;;;;;;;12.35;3.85;;;;;;;;;;5013270;28;20055;-56
2023/09/29 10:37:41;;;;;;;9.52;3.60;;;;;;;;;;5032771;28;20065;-56
2023/09/29 10:40:08;;;;;;;11.88;4.38;;;;;;;;;;5012778;28;20040;-55
2023/09/29 10:42:38;;;;;;;12.52;4.03;;;;;;;;;;5013429;28;20037;-55
2023/09/29 10:45:05;;;;;;;12.38;4.35;;;;;;;;;;5012595;28;20564;-54
2023/09/29 10:47:41;;;;;;;11.32;4.00;;;;;;;;;;5015200;28;20049;-55
2023/09/29 10:50:11;;;;;;;10.93;4.07;;;;;;;;;;5014026;28;20033;-56
2023/09/29 10:52:37;;;;;;;11.27;4.72;;;;;;;;;;5012485;28;20282;-55
2023/09/29 10:55:04;;;;;;;20.08;5.22;;;;;;;;;;5027304;28;20503;-52
2023/09/29 10:57:30;;;;;;;12.77;4.70;;;;;;;;;;5012742;28;20604;-55
2023/09/29 10:59:59;;;;;;;13.50;4.45;;;;;;;;;;5014225;28;20041;-56
2023/09/29 11:02:33;;;;;;;14.75;5.18;;;;;;;;;;5005103;28;20034;-56
2023/09/29 11:05:07;;;;;;;17.45;4.35;;;;;;;;;;4991048;28;20076;-55
2023/09/29 11:07:45;;;;;;;15.75;4.45;;;;;;;;;;4989250;28;20064;-56
2023/09/29 11:10:12;;;;;;;12.93;4.65;;;;;;;;;;5002962;28;20359;-56
2023/09/29 11:12:40;;;;;;;15.38;4.47;;;;;;;;;;5010779;28;20374;-56
2023/09/29 11:15:09;;;;;;;13.43;4.60;;;;;;;;;;5015534;28;20115;-56
2023/09/29 11:17:48;;;;;;;15.52;4.45;;;;;;;;;;5002585;28;21374;-56
2023/09/29 11:20:27;;;;;;;9.32;4.28;;;;;;;;;;5025358;28;20036;-56
2023/09/29 11:23:00;;;;;;;12.07;4.53;;;;;;;;;;5016513;28;20068;-56
2023/09/29 11:25:26;;;;;;;14.05;4.78;;;;;;;;;;5017885;28;20033;-55
2023/09/29 11:27:52;;;;;;;17.08;5.22;;;;;;;;;;5017122;28;20030;-56
2023/09/29 11:30:24;;;;;;;11.95;4.53;;;;;;;;;;5009836;28;20037;-55
2023/09/29 11:32:50;;;;;;;12.95;4.80;;;;;;;;;;5019210;28;20457;-56
2023/09/29 11:35:16;;;;;;;13.48;5.00;;;;;;;;;;5010748;28;20045;-55
2023/09/29 11:37:46;;;;;;;13.35;4.50;;;;;;;;;;5012228;28;20045;-56
2023/09/29 11:40:12;;;;;;;15.18;5.13;;;;;;;;;;5009228;28;20068;-56
2023/09/29 11:42:44;;;;;;;12.07;4.53;;;;;;;;;;5015087;28;20047;-55
2023/09/29 11:45:10;;;;;;;10.95;4.03;;;;;;;;;;5007555;28;20111;-56
2023/09/29 11:47:40;;;;;;;12.15;4.28;;;;;;;;;;5011397;28;20041;-54
2023/09/29 11:50:08;;;;;;;13.00;3.90;;;;;;;;;;5013786;28;20895;-55
2023/09/29 11:52:34;;;;;;;13.95;4.53;;;;;;;;;;5012304;28;20045;-56
2023/09/29 11:55:00;;;;;;;14.85;4.10;;;;;;;;;;5010901;28;20038;-54
2023/09/29 11:57:26;;;;;;;15.18;4.65;;;;;;;;;;4983737;28;20685;-49
2023/09/29 11:59:52;;;;;;;14.55;4.57;;;;;;;;;;4990729;28;20402;-56
2023/09/29 12:02:18;;;;;;;15.93;4.90;;;;;;;;;;5000510;28;20129;-55
2023/09/29 12:04:44;;;;;;;11.77;4.75;;;;;;;;;;5019984;28;20045;-55
2023/09/29 12:07:10;;;;;;;12.30;4.50;;;;;;;;;;5013817;28;20129;-54
2023/09/29 12:09:36;;;;;;;14.48;5.35;;;;;;;;;;5021111;28;20654;-56
2023/09/29 12:12:03;;;;;;;13.90;4.65;;;;;;;;;;5010451;28;20038;-56
2023/09/29 12:14:29;;;;;;;15.07;4.85;;;;;;;;;;4988130;28;20046;-55
2023/09/29 12:16:55;;;;;;;12.90;4.40;;;;;;;;;;5003520;28;20056;-55
2023/09/29 12:19:21;;;;;;;12.82;4.65;;;;;;;;;;5014678;28;20243;-57
2023/09/29 12:21:50;;;;;;;9.02;4.30;;;;;;;;;;5013213;28;20030;-57
2023/09/29 12:24:16;;;;;;;10.18;3.90;;;;;;;;;;5015226;28;20045;-58
2023/09/29 12:26:46;;;;;;;14.18;3.90;;;;;;;;;;5003684;28;20037;-56
2023/09/29 12:29:12;;;;;;;17.13;4.18;;;;;;;;;;5001118;28;20057;-56
2023/09/29 12:31:38;;;;;;;15.05;4.15;;;;;;;;;;4986102;28;20034;-57
2023/09/29 12:34:04;;;;;;;14.23;3.92;;;;;;;;;;4973790;28;20041;-56
2023/09/29 12:36:31;;;;;;;11.15;3.90;;;;;;;;;;4992523;28;20369;-56
2023/09/29 12:38:56;;;;;;;11.50;3.92;;;;;;;;;;4992516;28;20088;-55
2023/09/29 12:41:23;;;;;;;11.40;3.90;;;;;;;;;;4991833;28;20132;-55
2023/09/29 12:43:49;;;;;;;12.55;3.70;;;;;;;;;;4992229;28;20421;-54
2023/09/29 12:46:15;;;;;;;8.15;3.40;;;;;;;;;;4990585;28;20048;-55
2023/09/29 12:48:41;;;;;;;12.00;3.42;;;;;;;;;;4992040;28;20034;-54
2023/09/29 12:51:07;;;;;;;13.55;3.95;;;;;;;;;;4990742;28;20414;-55
2023/09/29 12:53:33;;;;;;;11.40;3.65;;;;;;;;;;4993531;28;20045;-54
2023/09/29 12:55:59;;;;;;;10.40;3.30;;;;;;;;;;4990732;28;20152;-54
2023/09/29 12:58:25;;;;;;;12.15;3.80;;;;;;;;;;4988945;28;20034;-56
2023/09/29 13:00:51;;;;;;;10.68;3.65;;;;;;;;;;4992282;28;20644;-55
2023/09/29 13:03:17;;;;;;;12.13;3.67;;;;;;;;;;4990854;28;20092;-55
2023/09/29 13:05:45;;;;;;;12.57;3.72;;;;;;;;;;4995228;28;20045;-54
2023/09/29 13:08:12;;;;;;;14.23;3.95;;;;;;;;;;4989738;28;20064;-55
2023/09/29 13:10:38;;;;;;;11.27;3.65;;;;;;;;;;4989291;28;20038;-54
2023/09/29 13:13:05;;;;;;;10.32;3.40;;;;;;;;;;4989461;28;20045;-54
2023/09/29 13:15:34;;;;;;;7.75;3.22;;;;;;;;;;4991471;28;20132;-54
2023/09/29 13:18:00;;;;;;;10.23;2.92;;;;;;;;;;4990236;28;20112;-55
2023/09/29 13:20:26;;;;;;;9.77;3.22;;;;;;;;;;4989120;28;20510;-55
2023/09/29 13:22:52;;;;;;;10.30;2.55;;;;;;;;;;4990622;28;20026;-56
2023/09/29 13:25:18;;;;;;;7.78;2.63;;;;;;;;;;4989102;28;20303;-55
2023/09/29 13:27:44;;;;;;;6.20;2.60;;;;;;;;;;4986541;28;20041;-54
2023/09/29 13:30:11;;;;;;;8.80;2.85;;;;;;;;;;4988334;28;20103;-54
2023/09/29 13:32:37;;;;;;;7.45;2.75;;;;;;;;;;4988983;28;20045;-54
2023/09/29 13:35:03;;;;;;;7.63;3.00;;;;;;;;;;4989544;28;20053;-56
2023/09/29 13:37:29;;;;;;;7.63;2.60;;;;;;;;;;4990120;28;20608;-55
2023/09/29 13:39:56;;;;;;;10.68;3.08;;;;;;;;;;4991245;28;20050;-54
2023/09/29 13:42:25;;;;;;;8.95;3.20;;;;;;;;;;4992148;28;20052;-54
2023/09/29 13:44:51;;;;;;;6.70;2.88;;;;;;;;;;4992664;28;20040;-54
2023/09/29 13:47:17;;;;;;;7.22;2.75;;;;;;;;;;4992662;28;20370;-53
2023/09/29 13:49:43;;;;;;;9.73;3.45;;;;;;;;;;4994492;28;20076;-55
2023/09/29 13:52:09;;;;;;;7.20;2.85;;;;;;;;;;4992236;28;20706;-55
2023/09/29 13:54:35;;;;;;;11.23;3.30;;;;;;;;;;4995409;28;20042;-54
2023/09/29 13:57:03;;;;;;;9.90;3.15;;;;;;;;;;4992081;28;20461;-54
2023/09/29 13:59:29;;;;;;;39.40;4.65;;;;;;;;;;4993971;28;20129;-55
2023/09/29 14:01:55;;;;;;;9.32;3.10;;;;;;;;;;4994719;28;20046;-54
2023/09/29 14:04:21;;;;;;;9.13;3.40;;;;;;;;;;4993445;28;20333;-53
2023/09/29 14:06:47;;;;;;;8.02;3.30;;;;;;;;;;4993470;28;20030;-54
2023/09/29 14:09:13;;;;;;;9.30;3.35;;;;;;;;;;4990997;28;20341;-56
2023/09/29 14:11:39;;;;;;;13.55;3.75;;;;;;;;;;4995730;28;20034;-55